createdAt,value
2019-05-23T00:00:03.594Z,46.97
2019-05-23T00:03:00.677Z,46.83
2019-05-23T00:05:43.649Z,46.07
2019-05-23T00:08:19.047Z,44.87
2019-05-23T00:11:22.203Z,46.93
2019-05-23T00:13:57.657Z,46.60
2019-05-23T00:16:28.176Z,44.87
2019-05-23T00:18:57.238Z,44.33
2019-05-23T00:21:26.348Z,44.07
2019-05-23T00:23:55.701Z,42.47
2019-05-23T00:26:26.123Z,43.33
2019-05-23T00:29:09.640Z,41.40
2019-05-23T00:31:30.269Z,41.60
2019-05-23T00:33:59.924Z,41.57
2019-05-23T00:36:31.305Z,42.20
2019-05-23T00:39:01.721Z,42.30
2019-05-23T00:41:31.446Z,38.50
2019-05-23T00:44:00.412Z,40.07
2019-05-23T00:46:29.990Z,39.27
2019-05-23T00:48:59.002Z,38.70
2019-05-23T00:51:27.945Z,38.13
2019-05-23T00:53:57.094Z,37.90
2019-05-23T00:56:26.326Z,35.93
2019-05-23T00:58:56.397Z,37.00
2019-05-23T01:01:25.462Z,36.07
2019-05-23T01:03:54.637Z,35.40
2019-05-23T01:06:23.823Z,34.83
2019-05-23T01:08:54.893Z,33.27
2019-05-23T01:11:25.112Z,32.03
2019-05-23T01:13:54.349Z,32.13
2019-05-23T01:16:23.463Z,32.63
2019-05-23T01:19:18.748Z,31.10
2019-05-23T01:22:08.767Z,31.60
2019-05-23T01:24:43.336Z,30.77
2019-05-23T01:27:12.977Z,29.13
2019-05-23T01:29:49.596Z,29.43
2019-05-23T01:32:30.345Z,27.80
2019-05-23T01:34:59.148Z,28.30
2019-05-23T01:37:48.800Z,27.73
2019-05-23T01:40:18.110Z,25.90
2019-05-23T01:42:47.394Z,26.10
2019-05-23T01:45:17.639Z,24.90
2019-05-23T01:47:47.723Z,25.70
2019-05-23T01:50:16.713Z,23.90
2019-05-23T01:52:45.534Z,24.23
2019-05-23T01:55:15.471Z,24.27
2019-05-23T01:57:44.455Z,24.07
2019-05-23T02:00:17.805Z,23.20
2019-05-23T02:02:48.565Z,22.43
2019-05-23T02:05:18.145Z,22.07
2019-05-23T02:07:47.553Z,21.73
2019-05-23T02:10:16.421Z,22.20
2019-05-23T02:12:46.253Z,22.40
2019-05-23T02:15:15.674Z,19.83
2019-05-23T02:17:45.428Z,21.07
2019-05-23T02:20:16.371Z,19.03
2019-05-23T02:22:45.729Z,19.13
2019-05-23T02:25:16.844Z,18.63
2019-05-23T02:27:46.723Z,18.07
2019-05-23T02:30:33.202Z,19.13
2019-05-23T02:32:49.101Z,18.30
2019-05-23T02:35:18.476Z,17.43
2019-05-23T02:38:10.048Z,17.97
2019-05-23T02:40:46.432Z,18.57
2019-05-23T02:43:17.353Z,18.30
2019-05-23T02:45:48.710Z,17.67
2019-05-23T02:48:28.545Z,17.10
2019-05-23T02:51:00.883Z,17.23
2019-05-23T02:53:31.871Z,17.23
2019-05-23T02:56:01.641Z,16.63
2019-05-23T02:59:10.984Z,17.27
2019-05-23T03:02:14.911Z,16.00
2019-05-23T03:04:45.696Z,16.13
2019-05-23T03:07:14.871Z,16.80
2019-05-23T03:09:43.788Z,16.97
2019-05-23T03:12:15.366Z,16.83
2019-05-23T03:14:45.930Z,16.13
2019-05-23T03:17:16.391Z,16.23
2019-05-23T03:19:52.844Z,15.50
2019-05-23T03:22:33.825Z,14.93
2019-05-23T03:25:04.507Z,15.07
2019-05-23T03:27:37.842Z,15.83
2019-05-23T03:30:09.290Z,15.27
2019-05-23T03:32:54.538Z,14.77
2019-05-23T03:35:27.803Z,15.23
2019-05-23T03:37:57.498Z,14.47
2019-05-23T03:40:26.504Z,14.67
2019-05-23T03:42:55.939Z,13.87
2019-05-23T03:45:26.783Z,14.47
2019-05-23T03:47:55.965Z,14.63
2019-05-23T03:50:26.032Z,14.10
2019-05-23T03:52:56.927Z,13.53
2019-05-23T03:55:28.223Z,14.20
2019-05-23T03:57:57.785Z,13.60
2019-05-23T04:00:51.056Z,12.77
2019-05-23T04:03:22.889Z,13.30
2019-05-23T04:05:51.900Z,13.03
2019-05-23T04:08:20.728Z,12.93
2019-05-23T04:10:51.777Z,12.33
2019-05-23T04:13:21.619Z,13.70
2019-05-23T04:15:50.504Z,13.37
2019-05-23T04:18:19.376Z,13.90
2019-05-23T04:20:48.442Z,17.73
2019-05-23T04:23:17.808Z,15.60
2019-05-23T04:25:46.713Z,12.90
2019-05-23T04:28:16.496Z,14.67
2019-05-23T04:30:47.519Z,12.70
2019-05-23T04:33:16.947Z,12.00
2019-05-23T04:35:45.792Z,12.10
2019-05-23T04:38:15.912Z,11.63
2019-05-23T04:41:04.733Z,11.90
2019-05-23T04:43:33.582Z,12.27
2019-05-23T04:46:03.225Z,11.47
2019-05-23T04:48:32.317Z,11.47
2019-05-23T04:51:01.470Z,11.47
2019-05-23T04:53:30.542Z,10.87
2019-05-23T04:55:59.392Z,10.97
2019-05-23T04:58:28.363Z,10.60
2019-05-23T05:00:57.447Z,10.87
2019-05-23T05:03:26.563Z,9.70
2019-05-23T05:05:55.438Z,11.73
2019-05-23T05:08:24.310Z,9.97
2019-05-23T05:10:53.520Z,8.77
2019-05-23T05:13:22.476Z,10.37
2019-05-23T05:15:51.661Z,9.87
2019-05-23T05:18:20.767Z,9.60
2019-05-23T05:20:49.610Z,9.70
2019-05-23T05:23:18.405Z,9.00
2019-05-23T05:25:47.226Z,9.27
2019-05-23T05:28:16.174Z,9.20
2019-05-23T05:30:45.276Z,8.97
2019-05-23T05:33:14.073Z,9.37
2019-05-23T05:35:43.261Z,9.13
2019-05-23T05:38:12.606Z,10.50
2019-05-23T05:40:41.423Z,12.87
2019-05-23T05:43:10.521Z,11.33
2019-05-23T05:45:39.594Z,12.77
2019-05-23T05:48:08.947Z,11.87
2019-05-23T05:50:38.591Z,12.70
2019-05-23T05:53:08.983Z,13.47
2019-05-23T05:55:38.015Z,13.03
2019-05-23T05:58:07.164Z,13.07
2019-05-23T06:00:53.746Z,12.57
2019-05-23T06:03:23.110Z,12.60
2019-05-23T06:06:01.961Z,13.50
2019-05-23T06:08:31.706Z,12.97
2019-05-23T06:11:00.588Z,14.20
2019-05-23T06:13:29.468Z,13.87
2019-05-23T06:16:07.001Z,13.53
2019-05-23T06:18:36.701Z,14.47
2019-05-23T06:21:06.316Z,13.87
2019-05-23T06:23:35.460Z,26.50
2019-05-23T06:26:04.287Z,17.33
2019-05-23T06:28:52.527Z,16.50
2019-05-23T06:31:23.463Z,16.07
2019-05-23T06:33:56.016Z,18.60
2019-05-23T06:36:24.822Z,22.37
2019-05-23T06:38:55.381Z,23.20
2019-05-23T06:41:25.263Z,24.80
2019-05-23T06:43:54.813Z,24.10
2019-05-23T06:46:25.029Z,19.67
2019-05-23T06:48:54.340Z,25.27
2019-05-23T06:51:23.120Z,20.13
2019-05-23T06:53:52.320Z,20.27
2019-05-23T06:56:21.280Z,22.10
2019-05-23T06:58:50.073Z,19.23
2019-05-23T07:01:18.989Z,21.23
2019-05-23T07:03:47.779Z,18.67
2019-05-23T07:06:35.858Z,20.90
2019-05-23T07:09:10.074Z,23.77
2019-05-23T07:11:38.962Z,18.00
2019-05-23T07:14:08.008Z,20.43
2019-05-23T07:16:36.918Z,17.23
2019-05-23T07:19:05.925Z,17.27
2019-05-23T07:21:34.930Z,16.30
2019-05-23T07:24:03.798Z,17.37
2019-05-23T07:26:32.990Z,16.03
2019-05-23T07:29:01.923Z,15.13
2019-05-23T07:31:31.477Z,15.97
2019-05-23T07:34:02.532Z,15.20
2019-05-23T07:36:31.295Z,16.33
2019-05-23T07:39:00.738Z,15.17
2019-05-23T07:41:29.807Z,15.40
2019-05-23T07:43:59.004Z,15.40
2019-05-23T07:46:29.149Z,14.23
2019-05-23T07:48:58.436Z,15.47
2019-05-23T07:51:29.716Z,14.93
2019-05-23T07:54:15.925Z,15.73
2019-05-23T07:56:44.978Z,15.40
2019-05-23T07:59:13.772Z,15.33
2019-05-23T08:01:45.755Z,15.77
2019-05-23T08:04:22.813Z,15.27
2019-05-23T08:06:48.814Z,14.60
2019-05-23T08:09:18.232Z,13.47
2019-05-23T08:11:47.529Z,14.60
2019-05-23T08:14:16.674Z,14.03
2019-05-23T08:16:45.890Z,14.50
2019-05-23T08:19:19.385Z,14.50
2019-05-23T08:21:45.598Z,15.03
2019-05-23T08:24:14.591Z,14.47
2019-05-23T08:26:45.026Z,13.97
2019-05-23T08:29:29.494Z,14.10
2019-05-23T08:31:44.753Z,14.03
2019-05-23T08:34:15.050Z,14.10
2019-05-23T08:36:44.436Z,14.13
2019-05-23T08:39:14.523Z,14.17
2019-05-23T08:41:43.411Z,13.97
2019-05-23T08:44:12.225Z,15.63
2019-05-23T08:46:41.376Z,15.27
2019-05-23T08:49:10.407Z,14.10
2019-05-23T08:51:39.227Z,13.50
2019-05-23T08:54:08.024Z,13.80
2019-05-23T08:56:56.148Z,13.77
2019-05-23T08:59:25.289Z,13.97
2019-05-23T09:01:54.093Z,12.43
2019-05-23T09:04:23.462Z,14.23
2019-05-23T09:06:52.585Z,11.47
2019-05-23T09:09:29.501Z,13.13
2019-05-23T09:11:52.517Z,11.07
2019-05-23T09:14:22.244Z,12.90
2019-05-23T09:16:51.105Z,11.07
2019-05-23T09:19:19.978Z,9.87
2019-05-23T09:21:48.874Z,10.57
2019-05-23T09:24:17.769Z,11.40
2019-05-23T09:26:48.349Z,10.73
2019-05-23T09:29:17.520Z,10.80
2019-05-23T09:31:46.589Z,9.70
2019-05-23T09:34:15.552Z,9.67
2019-05-23T09:36:44.436Z,9.33
2019-05-23T09:39:15.413Z,9.93
2019-05-23T09:41:44.893Z,10.27
2019-05-23T09:44:13.676Z,9.53
2019-05-23T09:46:42.477Z,9.33
2019-05-23T09:49:11.601Z,9.77
2019-05-23T09:51:41.148Z,8.07
2019-05-23T09:54:10.030Z,9.53
2019-05-23T09:56:39.587Z,10.07
2019-05-23T09:59:08.511Z,9.33
2019-05-23T10:01:37.643Z,9.10
2019-05-23T10:04:06.705Z,7.20
2019-05-23T10:06:35.853Z,6.47
2019-05-23T10:09:07.411Z,6.50
2019-05-23T10:11:36.337Z,7.30
2019-05-23T10:14:07.315Z,6.83
2019-05-23T10:16:36.396Z,5.47
2019-05-23T10:19:05.611Z,7.27
2019-05-23T10:21:34.720Z,6.43
2019-05-23T10:24:03.609Z,7.87
2019-05-23T10:26:32.456Z,6.63
2019-05-23T10:29:01.300Z,6.57
2019-05-23T10:31:30.272Z,6.63
2019-05-23T10:33:59.377Z,5.33
2019-05-23T10:36:28.315Z,5.60
2019-05-23T10:38:57.505Z,5.70
2019-05-23T10:41:26.293Z,5.53
2019-05-23T10:43:55.386Z,5.27
2019-05-23T10:46:24.337Z,4.83
2019-05-23T10:48:53.508Z,6.30
2019-05-23T10:51:22.381Z,5.70
2019-05-23T10:53:51.378Z,6.60
2019-05-23T10:56:39.512Z,5.73
2019-05-23T10:59:08.376Z,6.00
2019-05-23T11:01:37.468Z,6.70
2019-05-23T11:04:06.780Z,5.37
2019-05-23T11:06:35.804Z,5.57
2019-05-23T11:09:07.894Z,6.13
2019-05-23T11:11:37.360Z,6.90
2019-05-23T11:14:08.554Z,7.57
2019-05-23T11:16:37.848Z,8.90
2019-05-23T11:19:07.968Z,9.20
2019-05-23T11:21:36.765Z,10.77
2019-05-23T11:24:06.256Z,10.37
2019-05-23T11:26:35.367Z,11.00
2019-05-23T11:29:04.189Z,11.77
2019-05-23T11:31:33.279Z,10.80
2019-05-23T11:34:02.233Z,9.57
2019-05-23T11:36:36.164Z,12.13
2019-05-23T11:39:02.121Z,10.03
2019-05-23T11:41:31.778Z,9.73
2019-05-23T11:44:00.577Z,9.23
2019-05-23T11:46:32.667Z,10.00
2019-05-23T11:49:02.089Z,9.60
2019-05-23T11:51:31.055Z,9.63
2019-05-23T11:54:07.834Z,9.10
2019-05-23T11:56:30.588Z,9.50
2019-05-23T11:59:01.668Z,9.10
2019-05-23T12:01:44.623Z,9.20
2019-05-23T12:04:21.255Z,9.10
2019-05-23T12:07:02.517Z,9.83
2019-05-23T12:09:31.488Z,9.33
2019-05-23T12:12:00.331Z,9.83
2019-05-23T12:14:29.333Z,9.17
2019-05-23T12:16:58.332Z,10.83
2019-05-23T12:19:27.193Z,9.20
2019-05-23T12:21:56.422Z,9.23
2019-05-23T12:24:25.327Z,7.97
2019-05-23T12:26:54.192Z,10.03
2019-05-23T12:29:23.025Z,9.60
2019-05-23T12:31:51.902Z,10.90
2019-05-23T12:34:20.706Z,12.20
2019-05-23T12:36:49.607Z,12.47
2019-05-23T12:39:18.584Z,11.47
2019-05-23T12:41:47.368Z,13.00
2019-05-23T12:44:17.802Z,12.60
2019-05-23T12:46:47.060Z,12.90
2019-05-23T12:49:33.083Z,13.97
2019-05-23T12:52:02.525Z,13.93
2019-05-23T12:54:32.727Z,14.27
2019-05-23T12:57:01.778Z,15.23
2019-05-23T12:59:31.141Z,14.63
2019-05-23T13:02:01.637Z,14.30
2019-05-23T13:04:30.562Z,15.17
2019-05-23T13:06:59.530Z,14.60
2019-05-23T13:09:28.596Z,14.33
2019-05-23T13:11:57.511Z,13.80
2019-05-23T13:14:26.572Z,15.20
2019-05-23T13:17:00.333Z,13.80
2019-05-23T13:19:26.757Z,14.43
2019-05-23T13:21:55.579Z,13.70
2019-05-23T13:24:25.364Z,15.00
2019-05-23T13:26:54.239Z,14.57
2019-05-23T13:29:24.646Z,15.70
2019-05-23T13:31:54.404Z,16.13
2019-05-23T13:34:23.325Z,16.27
2019-05-23T13:36:52.172Z,18.90
2019-05-23T13:39:21.495Z,17.77
2019-05-23T13:41:50.372Z,19.40
2019-05-23T13:44:33.088Z,19.03
2019-05-23T13:46:50.067Z,20.63
2019-05-23T13:49:19.018Z,21.10
2019-05-23T13:51:48.073Z,20.67
2019-05-23T13:54:17.119Z,20.97
2019-05-23T13:56:47.719Z,21.47
2019-05-23T13:59:37.237Z,21.80
2019-05-23T14:02:08.873Z,21.63
2019-05-23T14:04:38.060Z,21.57
2019-05-23T14:07:08.533Z,21.53
2019-05-23T14:09:38.195Z,21.17
2019-05-23T14:12:20.555Z,20.77
2019-05-23T14:14:38.375Z,20.83
2019-05-23T14:17:35.357Z,20.50
2019-05-23T14:20:04.959Z,20.97
2019-05-23T14:22:37.077Z,20.87
2019-05-23T14:25:05.956Z,19.30
2019-05-23T14:27:59.891Z,20.03
2019-05-23T14:31:00.321Z,19.03
2019-05-23T14:33:51.415Z,18.87
2019-05-23T14:36:26.157Z,18.90
2019-05-23T14:38:55.549Z,17.23
2019-05-23T14:41:24.410Z,18.03
2019-05-23T14:43:54.460Z,17.37
2019-05-23T14:46:23.398Z,17.03
2019-05-23T14:49:03.193Z,17.43
2019-05-23T14:51:47.764Z,17.97
2019-05-23T14:54:28.373Z,18.73
2019-05-23T14:56:57.416Z,16.67
2019-05-23T14:59:27.117Z,16.83
2019-05-23T15:01:56.154Z,18.27
2019-05-23T15:04:25.426Z,16.97
2019-05-23T15:06:56.036Z,18.83
2019-05-23T15:09:25.093Z,17.30
2019-05-23T15:11:54.315Z,16.60
2019-05-23T15:14:23.135Z,16.60
2019-05-23T15:16:53.024Z,16.53
2019-05-23T15:19:40.094Z,16.50
2019-05-23T15:21:52.562Z,17.27
2019-05-23T15:24:21.639Z,17.37
2019-05-23T15:26:50.632Z,17.40
2019-05-23T15:29:19.461Z,17.33
2019-05-23T15:32:01.575Z,17.97
2019-05-23T15:34:19.012Z,18.57
2019-05-23T15:36:47.989Z,18.03
2019-05-23T15:39:18.336Z,18.30
2019-05-23T15:41:47.163Z,19.33
2019-05-23T15:44:25.871Z,20.80
2019-05-23T15:46:46.841Z,22.13
2019-05-23T15:49:15.769Z,21.03
2019-05-23T15:52:00.435Z,21.17
2019-05-23T15:54:44.651Z,23.37
2019-05-23T15:57:21.927Z,23.80
2019-05-23T16:00:12.660Z,23.43
2019-05-23T16:02:52.605Z,23.80
2019-05-23T16:05:21.422Z,24.70
2019-05-23T16:07:50.444Z,25.27
2019-05-23T16:10:19.963Z,23.53
2019-05-23T16:12:48.890Z,23.83
2019-05-23T16:15:17.788Z,23.83
2019-05-23T16:17:46.654Z,23.30
2019-05-23T16:20:15.652Z,23.30
2019-05-23T16:22:44.897Z,22.83
2019-05-23T16:25:13.787Z,22.13
2019-05-23T16:27:43.020Z,22.80
2019-05-23T16:30:11.900Z,21.90
2019-05-23T16:32:46.575Z,23.60
2019-05-23T16:35:14.284Z,24.43
2019-05-23T16:37:43.148Z,23.20
2019-05-23T16:40:12.101Z,32.47
2019-05-23T16:42:41.055Z,25.63
2019-05-23T16:45:09.998Z,24.13
2019-05-23T16:47:39.199Z,29.03
2019-05-23T16:50:08.082Z,28.53
2019-05-23T16:52:37.251Z,33.13
2019-05-23T16:55:09.904Z,44.40
2019-05-23T16:57:46.979Z,61.50
2019-05-23T17:00:53.344Z,63.37
2019-05-23T17:03:44.208Z,54.27
2019-05-23T17:06:44.233Z,54.30
2019-05-23T17:09:41.535Z,29.57
2019-05-23T17:12:35.727Z,17.20
2019-05-23T17:15:16.689Z,16.00
2019-05-23T17:18:15.126Z,21.13
2019-05-23T17:20:59.889Z,11.00
2019-05-23T17:23:47.566Z,9.77
2019-05-23T17:26:42.468Z,12.57
2019-05-23T17:29:28.583Z,10.90
2019-05-23T17:31:58.590Z,12.07
2019-05-23T17:34:28.230Z,12.73
2019-05-23T17:36:57.899Z,6.43
2019-05-23T17:39:28.455Z,4.53
2019-05-23T17:41:58.383Z,12.00
2019-05-23T17:44:28.075Z,7.30
2019-05-23T17:46:57.647Z,5.53
2019-05-23T17:49:27.305Z,5.63
2019-05-23T17:51:56.821Z,5.00
2019-05-23T17:54:27.011Z,4.07
2019-05-23T17:56:56.711Z,4.50
2019-05-23T17:59:26.936Z,6.13
2019-05-23T18:01:56.642Z,4.07
2019-05-23T18:04:26.350Z,7.70
2019-05-23T18:06:56.900Z,7.10
2019-05-23T18:09:27.014Z,6.13
2019-05-23T18:11:56.851Z,5.97
2019-05-23T18:14:26.595Z,8.75
2019-05-23T18:16:56.365Z,8.17
2019-05-23T18:19:26.451Z,10.90
2019-05-23T18:21:56.372Z,5.90
2019-05-23T18:24:26.678Z,6.83
2019-05-23T18:26:56.867Z,5.03
2019-05-23T18:29:26.827Z,8.13
2019-05-23T18:31:56.685Z,3.90
2019-05-23T18:34:26.504Z,5.57
2019-05-23T18:36:56.154Z,8.53
2019-05-23T18:39:25.978Z,7.73
2019-05-23T18:41:55.850Z,9.37
2019-05-23T18:44:25.677Z,9.57
2019-05-23T18:46:57.337Z,6.80
2019-05-23T18:49:28.636Z,9.07
2019-05-23T18:51:58.171Z,7.37
2019-05-23T18:54:27.725Z,5.27
2019-05-23T18:56:57.071Z,5.63
2019-05-23T18:59:26.546Z,4.13
2019-05-23T19:01:58.162Z,4.87
2019-05-23T19:04:27.602Z,4.50
2019-05-23T19:06:57.668Z,4.80
2019-05-23T19:09:28.341Z,8.07
2019-05-23T19:11:58.698Z,6.40
2019-05-23T19:14:27.648Z,6.97
2019-05-23T19:16:57.806Z,9.83
2019-05-23T19:19:27.596Z,10.13
2019-05-23T19:21:56.904Z,10.00
2019-05-23T19:24:26.098Z,9.17
2019-05-23T19:26:57.053Z,7.90
2019-05-23T19:29:26.395Z,14.90
2019-05-23T19:31:55.793Z,8.40
2019-05-23T19:34:24.898Z,6.53
2019-05-23T19:36:54.312Z,6.67
2019-05-23T19:39:23.774Z,4.90
2019-05-23T19:41:53.505Z,6.03
2019-05-23T19:44:22.576Z,5.77
2019-05-23T19:46:51.868Z,9.40
2019-05-23T19:49:20.875Z,7.50
2019-05-23T19:51:49.929Z,6.53
2019-05-23T19:54:19.651Z,7.60
2019-05-23T19:56:48.688Z,5.57
2019-05-23T19:59:20.772Z,7.53
2019-05-23T20:02:11.831Z,6.80
2019-05-23T20:04:44.514Z,5.97
2019-05-23T20:07:15.575Z,6.43
2019-05-23T20:09:45.782Z,8.83
2019-05-23T20:12:14.901Z,7.90
2019-05-23T20:14:44.485Z,12.10
2019-05-23T20:17:13.611Z,8.87
2019-05-23T20:19:44.095Z,10.80
2019-05-23T20:22:13.085Z,8.43
2019-05-23T20:24:42.135Z,8.70
2019-05-23T20:27:11.000Z,10.63
2019-05-23T20:29:39.894Z,9.90
2019-05-23T20:32:08.972Z,9.60
2019-05-23T20:34:37.988Z,13.47
2019-05-23T20:37:07.070Z,11.90
2019-05-23T20:39:36.213Z,12.80
2019-05-23T20:42:11.445Z,15.67
2019-05-23T20:44:36.098Z,13.77
2019-05-23T20:47:06.221Z,14.67
2019-05-23T20:49:35.136Z,14.00
2019-05-23T20:52:04.016Z,14.40
2019-05-23T20:54:33.664Z,14.83
2019-05-23T20:57:03.541Z,14.57
2019-05-23T20:59:32.868Z,15.60
2019-05-23T21:02:01.831Z,16.80
2019-05-23T21:04:34.269Z,17.20
2019-05-23T21:07:03.576Z,16.07
2019-05-23T21:09:32.566Z,13.07
2019-05-23T21:12:01.581Z,14.03
2019-05-23T21:14:30.477Z,14.23
2019-05-23T21:16:59.306Z,15.40
2019-05-23T21:19:28.154Z,13.97
2019-05-23T21:21:57.091Z,14.33
2019-05-23T21:24:29.474Z,14.60
2019-05-23T21:26:58.759Z,15.73
2019-05-23T21:29:27.752Z,15.10
2019-05-23T21:31:56.667Z,14.43
2019-05-23T21:34:25.936Z,15.03
2019-05-23T21:36:54.951Z,14.63
2019-05-23T21:39:24.251Z,14.33
2019-05-23T21:41:54.399Z,15.17
2019-05-23T21:44:23.276Z,14.13
2019-05-23T21:46:52.345Z,14.00
2019-05-23T21:49:21.183Z,15.67
2019-05-23T21:51:51.886Z,13.97
2019-05-23T21:54:20.665Z,16.27
2019-05-23T21:56:49.636Z,15.47
2019-05-23T21:59:18.468Z,15.07
2019-05-23T22:02:05.083Z,16.17
2019-05-23T22:04:49.861Z,15.00
2019-05-23T22:07:18.731Z,11.37
2019-05-23T22:09:47.715Z,12.97
2019-05-23T22:12:17.929Z,17.77
2019-05-23T22:14:47.289Z,24.37
2019-05-23T22:17:17.167Z,27.83
2019-05-23T22:19:46.480Z,26.70
2019-05-23T22:22:16.103Z,27.63
2019-05-23T22:24:44.986Z,27.90
2019-05-23T22:27:14.648Z,26.73
2019-05-23T22:29:43.919Z,28.87
2019-05-23T22:32:14.492Z,27.40
2019-05-23T22:35:03.093Z,27.37
2019-05-23T22:37:32.209Z,27.87
2019-05-23T22:40:01.208Z,29.33
2019-05-23T22:42:31.423Z,29.17
2019-05-23T22:45:00.250Z,27.37
2019-05-23T22:47:48.523Z,28.47
2019-05-23T22:50:17.509Z,30.07
2019-05-23T22:52:46.781Z,27.57
2019-05-23T22:55:15.705Z,28.67
2019-05-23T22:57:44.573Z,29.20
2019-05-23T23:00:15.129Z,28.77
2019-05-23T23:02:46.089Z,26.63
2019-05-23T23:05:15.547Z,28.87
2019-05-23T23:07:44.444Z,28.40
2019-05-23T23:10:15.476Z,32.70
2019-05-23T23:12:44.381Z,28.33
2019-05-23T23:15:13.306Z,29.80
2019-05-23T23:17:42.358Z,29.67
2019-05-23T23:20:11.300Z,27.93
2019-05-23T23:22:40.231Z,27.73
2019-05-23T23:25:09.130Z,27.87
2019-05-23T23:27:38.001Z,28.37
2019-05-23T23:30:07.583Z,28.07
2019-05-23T23:32:36.527Z,27.30
2019-05-23T23:35:05.704Z,28.57
2019-05-23T23:37:35.114Z,28.57
2019-05-23T23:40:04.686Z,28.07
2019-05-23T23:42:34.154Z,28.57
2019-05-23T23:45:23.545Z,28.27
2019-05-23T23:48:10.637Z,27.87
2019-05-23T23:51:00.956Z,28.40
2019-05-23T23:53:48.073Z,27.20
2019-05-23T23:56:34.636Z,26.87
2019-05-23T23:59:02.750Z,26.37
